createdAt,value
2023-04-06T00:01:36.786Z,2.87
2023-04-06T00:04:04.541Z,2.88
2023-04-06T00:06:32.942Z,2.82
2023-04-06T00:09:00.539Z,2.80
2023-04-06T00:11:28.233Z,2.84
2023-04-06T00:13:55.928Z,2.86
2023-04-06T00:16:25.154Z,2.92
2023-04-06T00:18:52.946Z,2.94
2023-04-06T00:21:20.436Z,2.97
2023-04-06T00:23:47.937Z,2.88
2023-04-06T00:26:15.466Z,2.73
2023-04-06T00:28:46.746Z,2.84
2023-04-06T00:31:14.532Z,2.85
2023-04-06T00:33:43.403Z,2.95
2023-04-06T00:36:11.039Z,2.85
2023-04-06T00:38:38.590Z,2.79
2023-04-06T00:41:06.347Z,2.80
2023-04-06T00:43:33.896Z,2.79
2023-04-06T00:46:01.434Z,2.80
2023-04-06T00:48:28.985Z,2.74
2023-04-06T00:50:57.802Z,2.82
2023-04-06T00:53:25.328Z,2.80
2023-04-06T00:55:53.656Z,2.86
2023-04-06T00:58:23.035Z,2.88
2023-04-06T01:00:56.475Z,2.87
2023-04-06T01:03:24.768Z,2.86
2023-04-06T01:05:56.707Z,3.01
2023-04-06T01:08:28.801Z,3.01
2023-04-06T01:11:09.153Z,2.91
2023-04-06T01:13:38.839Z,2.98
2023-04-06T01:16:14.398Z,2.91
2023-04-06T01:19:02.232Z,2.83
2023-04-06T01:21:33.149Z,2.78
2023-04-06T01:24:20.557Z,2.78
2023-04-06T01:27:15.022Z,2.83
2023-04-06T01:29:55.115Z,2.77
2023-04-06T01:32:36.362Z,2.73
2023-04-06T01:35:03.870Z,2.76
2023-04-06T01:37:34.493Z,2.80
2023-04-06T01:40:08.442Z,2.80
2023-04-06T01:42:49.717Z,2.82
2023-04-06T01:45:28.343Z,2.79
2023-04-06T01:48:01.589Z,2.68
2023-04-06T01:50:30.445Z,2.68
2023-04-06T01:52:58.074Z,2.71
2023-04-06T01:55:29.166Z,2.74
2023-04-06T01:58:23.030Z,2.70
2023-04-06T02:00:50.685Z,2.66
2023-04-06T02:03:19.098Z,2.73
2023-04-06T02:05:47.853Z,2.66
2023-04-06T02:08:25.491Z,2.70
2023-04-06T02:10:54.384Z,2.63
2023-04-06T02:13:30.652Z,2.59
2023-04-06T02:15:58.722Z,2.48
2023-04-06T02:18:29.199Z,2.45
2023-04-06T02:20:57.422Z,2.45
2023-04-06T02:23:25.131Z,2.48
2023-04-06T02:25:54.005Z,2.41
2023-04-06T02:28:22.093Z,2.37
2023-04-06T02:30:49.640Z,2.31
2023-04-06T02:33:18.159Z,2.26
2023-04-06T02:35:48.353Z,2.32
2023-04-06T02:38:16.094Z,2.29
2023-04-06T02:40:43.568Z,2.33
2023-04-06T02:43:21.532Z,2.34
2023-04-06T02:45:52.016Z,2.26
2023-04-06T02:48:21.973Z,2.24
2023-04-06T02:50:49.544Z,2.20
2023-04-06T02:53:17.084Z,2.18
2023-04-06T02:55:44.701Z,2.17
2023-04-06T02:58:12.516Z,2.21
2023-04-06T03:00:47.898Z,2.11
2023-04-06T03:03:15.610Z,2.06
2023-04-06T03:05:46.903Z,1.93
2023-04-06T03:08:15.582Z,1.86
2023-04-06T03:10:45.884Z,1.82
2023-04-06T03:13:14.208Z,1.88
2023-04-06T03:15:52.269Z,1.77
2023-04-06T03:18:23.910Z,1.74
2023-04-06T03:20:54.694Z,1.74
2023-04-06T03:23:24.208Z,1.76
2023-04-06T03:25:57.496Z,1.72
2023-04-06T03:28:25.330Z,1.73
2023-04-06T03:31:04.128Z,1.74
2023-04-06T03:33:40.430Z,1.55
2023-04-06T03:36:10.815Z,1.60
2023-04-06T03:38:42.129Z,1.57
2023-04-06T03:41:13.455Z,1.56
2023-04-06T03:43:44.435Z,1.55
2023-04-06T03:46:13.430Z,1.55
2023-04-06T03:48:41.127Z,1.53
2023-04-06T03:51:08.663Z,1.53
2023-04-06T03:53:37.826Z,1.48
2023-04-06T03:56:06.097Z,1.37
2023-04-06T03:58:33.678Z,1.35
2023-04-06T04:01:01.185Z,1.36
2023-04-06T04:03:30.173Z,1.45
2023-04-06T04:05:57.773Z,1.51
2023-04-06T04:08:26.880Z,1.40
2023-04-06T04:10:54.436Z,1.33
2023-04-06T04:13:21.965Z,1.39
2023-04-06T04:15:51.980Z,1.37
2023-04-06T04:18:19.454Z,1.34
2023-04-06T04:20:48.308Z,1.39
2023-04-06T04:23:15.875Z,1.43
2023-04-06T04:25:43.450Z,1.40
2023-04-06T04:28:10.975Z,1.41
2023-04-06T04:30:40.431Z,1.45
2023-04-06T04:33:11.158Z,1.48
2023-04-06T04:35:39.109Z,1.43
2023-04-06T04:38:09.209Z,1.35
2023-04-06T04:40:41.439Z,1.41
2023-04-06T04:43:10.856Z,1.24
2023-04-06T04:45:39.490Z,1.23
2023-04-06T04:48:16.615Z,1.25
2023-04-06T04:50:52.709Z,1.25
2023-04-06T04:53:26.040Z,1.25
2023-04-06T04:55:59.259Z,1.21
2023-04-06T04:58:28.519Z,1.35
2023-04-06T05:00:58.693Z,1.27
2023-04-06T05:03:28.202Z,1.43
2023-04-06T05:06:00.293Z,1.52
2023-04-06T05:08:33.114Z,1.35
2023-04-06T05:11:01.549Z,1.14
2023-04-06T05:13:32.582Z,1.11
2023-04-06T05:16:02.676Z,0.98
2023-04-06T05:18:33.811Z,1.00
2023-04-06T05:21:02.588Z,0.95
2023-04-06T05:23:40.271Z,1.13
2023-04-06T05:26:07.828Z,1.02
2023-04-06T05:28:35.496Z,0.89
2023-04-06T05:31:03.955Z,0.88
2023-04-06T05:33:39.561Z,0.93
2023-04-06T05:36:12.556Z,0.84
2023-04-06T05:38:46.005Z,0.82
2023-04-06T05:41:28.108Z,0.95
2023-04-06T05:43:56.471Z,0.91
2023-04-06T05:46:25.340Z,0.92
2023-04-06T05:48:54.844Z,0.91
2023-04-06T05:51:27.709Z,0.89
2023-04-06T05:53:56.592Z,0.90
2023-04-06T05:56:24.806Z,1.01
2023-04-06T05:58:52.568Z,1.03
2023-04-06T06:01:26.193Z,1.09
2023-04-06T06:03:53.815Z,1.16
2023-04-06T06:06:21.687Z,1.12
2023-04-06T06:09:08.504Z,1.20
2023-04-06T06:11:41.996Z,1.19
2023-04-06T06:14:11.186Z,1.39
2023-04-06T06:16:41.452Z,1.37
2023-04-06T06:19:11.335Z,1.47
2023-04-06T06:21:38.897Z,1.51
2023-04-06T06:24:09.278Z,1.57
2023-04-06T06:26:38.130Z,1.69
2023-04-06T06:29:07.071Z,1.84
2023-04-06T06:31:37.401Z,1.90
2023-04-06T06:34:05.613Z,1.92
2023-04-06T06:36:36.215Z,2.06
2023-04-06T06:39:06.883Z,2.21
2023-04-06T06:41:36.621Z,2.33
2023-04-06T06:44:06.541Z,2.36
2023-04-06T06:46:36.136Z,2.33
2023-04-06T06:49:04.096Z,2.40
2023-04-06T06:51:31.832Z,2.50
2023-04-06T06:53:59.339Z,2.62
2023-04-06T06:56:27.678Z,2.82
2023-04-06T06:58:56.597Z,2.87
2023-04-06T07:01:24.184Z,2.93
2023-04-06T07:03:52.212Z,3.10
2023-04-06T07:06:19.794Z,3.18
2023-04-06T07:08:47.338Z,3.20
2023-04-06T07:11:14.884Z,3.28
2023-04-06T07:13:42.441Z,3.42
2023-04-06T07:16:11.339Z,3.51
2023-04-06T07:18:39.125Z,3.56
2023-04-06T07:21:06.674Z,3.65
2023-04-06T07:23:34.239Z,3.72
2023-04-06T07:26:01.770Z,3.78
2023-04-06T07:28:29.308Z,3.89
2023-04-06T07:30:57.119Z,3.97
2023-04-06T07:33:28.495Z,4.02
2023-04-06T07:35:56.073Z,4.07
2023-04-06T07:38:23.590Z,4.12
2023-04-06T07:40:52.524Z,4.24
2023-04-06T07:43:20.369Z,4.20
2023-04-06T07:45:48.128Z,4.34
2023-04-06T07:48:17.824Z,4.39
2023-04-06T07:50:47.176Z,4.45
2023-04-06T07:53:16.486Z,4.52
2023-04-06T07:55:45.374Z,4.64
2023-04-06T07:58:12.861Z,4.64
2023-04-06T08:00:40.331Z,4.77
2023-04-06T08:03:08.173Z,4.96
2023-04-06T08:05:35.792Z,5.09
2023-04-06T08:08:04.819Z,5.26
2023-04-06T08:10:32.335Z,5.34
2023-04-06T08:12:59.837Z,5.33
2023-04-06T08:15:28.430Z,5.31
2023-04-06T08:17:58.229Z,5.37
2023-04-06T08:20:25.864Z,5.44
2023-04-06T08:22:53.732Z,5.62
2023-04-06T08:25:22.672Z,5.87
2023-04-06T08:27:50.388Z,5.97
2023-04-06T08:30:19.887Z,5.86
2023-04-06T08:32:47.597Z,5.92
2023-04-06T08:35:15.186Z,6.08
2023-04-06T08:37:42.967Z,6.14
2023-04-06T08:40:11.188Z,6.16
2023-04-06T08:42:42.563Z,6.03
2023-04-06T08:45:11.021Z,5.98
2023-04-06T08:47:38.865Z,6.08
2023-04-06T08:50:07.659Z,6.06
2023-04-06T08:52:35.369Z,6.12
2023-04-06T08:55:06.198Z,6.11
2023-04-06T08:57:33.893Z,6.12
2023-04-06T09:00:03.395Z,6.14
2023-04-06T09:02:31.844Z,6.23
2023-04-06T09:04:59.538Z,6.40
2023-04-06T09:07:27.189Z,6.54
2023-04-06T09:09:54.756Z,6.77
2023-04-06T09:12:27.467Z,6.90
2023-04-06T09:14:55.339Z,6.88
2023-04-06T09:17:24.910Z,6.81
2023-04-06T09:19:53.030Z,6.81
2023-04-06T09:22:20.818Z,6.92
2023-04-06T09:24:50.418Z,6.90
2023-04-06T09:27:18.652Z,6.97
2023-04-06T09:29:46.579Z,7.01
2023-04-06T09:32:17.615Z,6.97
2023-04-06T09:34:50.948Z,6.96
2023-04-06T09:37:20.026Z,7.08
2023-04-06T09:39:47.924Z,7.08
2023-04-06T09:42:25.730Z,7.44
2023-04-06T09:44:53.294Z,7.44
2023-04-06T09:47:21.825Z,7.49
2023-04-06T09:49:52.562Z,7.51
2023-04-06T09:52:20.088Z,7.44
2023-04-06T09:54:48.362Z,7.37
2023-04-06T09:57:23.411Z,7.37
2023-04-06T09:59:56.666Z,7.55
2023-04-06T10:02:30.235Z,7.49
2023-04-06T10:05:04.979Z,7.72
2023-04-06T10:07:33.216Z,8.11
2023-04-06T10:10:01.279Z,8.03
2023-04-06T10:12:28.915Z,8.06
2023-04-06T10:14:56.404Z,8.34
2023-04-06T10:17:25.375Z,8.29
2023-04-06T10:19:56.337Z,8.41
2023-04-06T10:22:30.744Z,8.45
2023-04-06T10:24:58.249Z,8.70
2023-04-06T10:27:32.712Z,8.80
2023-04-06T10:30:04.179Z,8.41
2023-04-06T10:32:38.532Z,8.71
2023-04-06T10:35:10.113Z,9.34
2023-04-06T10:37:54.138Z,9.71
2023-04-06T10:40:24.316Z,9.50
2023-04-06T10:42:51.952Z,9.63
2023-04-06T10:45:24.082Z,9.99
2023-04-06T10:47:54.455Z,10.20
2023-04-06T10:50:22.621Z,10.40
2023-04-06T10:53:02.225Z,10.37
2023-04-06T10:55:30.614Z,10.54
2023-04-06T10:57:58.125Z,10.80
2023-04-06T11:00:30.975Z,10.93
2023-04-06T11:03:07.508Z,11.15
2023-04-06T11:05:35.026Z,11.08
2023-04-06T11:08:03.886Z,11.07
2023-04-06T11:10:31.851Z,10.95
2023-04-06T11:12:59.434Z,10.81
2023-04-06T11:15:26.954Z,10.68
2023-04-06T11:17:54.486Z,10.78
2023-04-06T11:20:22.082Z,10.64
2023-04-06T11:22:50.688Z,10.90
2023-04-06T11:25:20.272Z,11.34
2023-04-06T11:27:48.613Z,11.55
2023-04-06T11:30:16.637Z,11.58
2023-04-06T11:32:45.997Z,11.89
2023-04-06T11:35:16.388Z,12.20
2023-04-06T11:37:45.237Z,12.08
2023-04-06T11:40:12.885Z,11.77
2023-04-06T11:42:41.738Z,11.79
2023-04-06T11:45:10.295Z,12.00
2023-04-06T11:47:39.074Z,12.13
2023-04-06T11:50:10.668Z,12.36
2023-04-06T11:52:38.974Z,12.44
2023-04-06T11:55:13.879Z,12.54
2023-04-06T11:57:43.417Z,12.58
2023-04-06T12:00:12.001Z,12.68
2023-04-06T12:02:39.958Z,12.69
2023-04-06T12:05:09.532Z,12.53
2023-04-06T12:07:37.191Z,12.50
2023-04-06T12:10:06.110Z,12.76
2023-04-06T12:12:33.741Z,12.76
2023-04-06T12:15:02.601Z,12.78
2023-04-06T12:17:30.378Z,12.83
2023-04-06T12:20:05.224Z,12.80
2023-04-06T12:22:37.327Z,12.93
2023-04-06T12:25:05.623Z,12.98
2023-04-06T12:27:33.101Z,13.06
2023-04-06T12:30:02.488Z,12.94
2023-04-06T12:32:30.043Z,13.30
2023-04-06T12:34:57.555Z,13.34
2023-04-06T12:37:25.003Z,12.34
2023-04-06T12:39:52.502Z,12.53
2023-04-06T12:42:19.985Z,12.93
2023-04-06T12:44:48.143Z,12.89
2023-04-06T12:47:17.186Z,13.00
2023-04-06T12:49:44.986Z,13.03
2023-04-06T12:52:12.800Z,13.28
2023-04-06T12:54:40.391Z,12.68
2023-04-06T12:57:07.845Z,12.76
2023-04-06T12:59:35.636Z,13.08
2023-04-06T13:02:03.189Z,13.00
2023-04-06T13:04:32.040Z,12.87
2023-04-06T13:06:59.518Z,13.02
2023-04-06T13:09:27.027Z,12.99
2023-04-06T13:11:54.549Z,12.32
2023-04-06T13:14:22.502Z,12.45
2023-04-06T13:16:50.141Z,12.97
2023-04-06T13:19:19.177Z,13.08
2023-04-06T13:21:48.235Z,13.21
2023-04-06T13:24:16.559Z,13.43
2023-04-06T13:26:45.228Z,13.31
2023-04-06T13:29:12.786Z,13.58
2023-04-06T13:31:40.485Z,13.32
2023-04-06T13:34:08.474Z,13.22
2023-04-06T13:36:36.216Z,12.68
2023-04-06T13:39:05.501Z,12.51
2023-04-06T13:41:33.006Z,12.47
2023-04-06T13:44:00.538Z,12.41
2023-04-06T13:46:28.882Z,12.03
2023-04-06T13:48:56.547Z,12.09
2023-04-06T13:51:24.041Z,12.04
2023-04-06T13:53:53.666Z,12.00
2023-04-06T13:56:22.573Z,11.75
2023-04-06T13:58:50.135Z,11.77
2023-04-06T14:01:17.775Z,11.70
2023-04-06T14:03:48.742Z,11.79
2023-04-06T14:06:29.793Z,12.15
2023-04-06T14:08:59.106Z,12.12
2023-04-06T14:11:28.170Z,12.17
2023-04-06T14:13:58.004Z,12.24
2023-04-06T14:16:26.427Z,12.38
2023-04-06T14:18:54.165Z,12.13
2023-04-06T14:21:21.926Z,11.79
2023-04-06T14:23:49.456Z,11.86
2023-04-06T14:26:17.616Z,12.00
2023-04-06T14:28:47.433Z,11.86
2023-04-06T14:31:16.295Z,11.96
2023-04-06T14:33:44.670Z,11.89
2023-04-06T14:36:12.441Z,12.19
2023-04-06T14:38:41.193Z,12.45
2023-04-06T14:41:09.111Z,12.57
2023-04-06T14:43:36.714Z,12.43
2023-04-06T14:46:05.673Z,12.30
2023-04-06T14:48:33.221Z,12.31
2023-04-06T14:51:00.767Z,12.25
2023-04-06T14:53:28.909Z,12.55
2023-04-06T14:55:56.504Z,12.30
2023-04-06T14:58:24.570Z,11.98
2023-04-06T15:00:57.351Z,12.26
2023-04-06T15:03:27.102Z,12.42
2023-04-06T15:05:54.858Z,12.42
2023-04-06T15:08:23.389Z,12.26
2023-04-06T15:10:51.725Z,11.86
2023-04-06T15:13:19.769Z,11.84
2023-04-06T15:15:47.298Z,11.97
2023-04-06T15:18:14.847Z,12.00
2023-04-06T15:20:44.539Z,11.82
2023-04-06T15:23:12.124Z,11.70
2023-04-06T15:25:42.125Z,11.87
2023-04-06T15:28:09.738Z,11.88
2023-04-06T15:30:37.463Z,11.97
2023-04-06T15:33:06.701Z,11.85
2023-04-06T15:35:35.064Z,11.74
2023-04-06T15:38:04.250Z,11.75
2023-04-06T15:40:31.751Z,11.59
2023-04-06T15:42:59.261Z,11.58
2023-04-06T15:45:27.257Z,11.59
2023-04-06T15:47:54.829Z,11.58
2023-04-06T15:50:22.400Z,11.48
2023-04-06T15:52:49.921Z,11.34
2023-04-06T15:55:18.771Z,11.40
2023-04-06T15:57:46.328Z,11.53
2023-04-06T16:00:15.930Z,11.59
2023-04-06T16:02:43.601Z,11.33
2023-04-06T16:05:11.290Z,11.27
2023-04-06T16:07:38.818Z,11.17
2023-04-06T16:10:07.890Z,11.24
2023-04-06T16:12:36.736Z,11.26
2023-04-06T16:15:04.669Z,11.39
2023-04-06T16:17:32.223Z,11.53
2023-04-06T16:19:59.774Z,11.55
2023-04-06T16:22:28.678Z,11.60
2023-04-06T16:24:56.206Z,11.68
2023-04-06T16:27:23.832Z,11.48
2023-04-06T16:29:52.728Z,11.32
2023-04-06T16:32:20.243Z,11.20
2023-04-06T16:34:47.707Z,11.14
2023-04-06T16:37:15.338Z,11.04
2023-04-06T16:39:42.858Z,10.98
2023-04-06T16:42:10.324Z,11.07
2023-04-06T16:44:37.889Z,11.19
2023-04-06T16:47:06.987Z,11.21
2023-04-06T16:49:34.515Z,11.08
2023-04-06T16:52:03.827Z,10.94
2023-04-06T16:54:31.403Z,10.83
2023-04-06T16:56:58.985Z,10.80
2023-04-06T16:59:26.600Z,10.79
2023-04-06T17:01:54.420Z,10.71
2023-04-06T17:04:23.629Z,10.75
2023-04-06T17:06:51.359Z,10.71
2023-04-06T17:09:18.926Z,10.65
2023-04-06T17:11:47.191Z,10.69
2023-04-06T17:14:15.303Z,10.65
2023-04-06T17:16:42.951Z,10.59
2023-04-06T17:19:10.761Z,10.51
2023-04-06T17:21:40.456Z,10.43
2023-04-06T17:24:08.618Z,10.52
2023-04-06T17:26:36.156Z,10.49
2023-04-06T17:29:03.700Z,10.61
2023-04-06T17:31:31.970Z,10.56
2023-04-06T17:33:59.726Z,10.52
2023-04-06T17:36:28.406Z,10.48
2023-04-06T17:38:57.334Z,10.44
2023-04-06T17:41:24.944Z,10.33
2023-04-06T17:43:52.437Z,10.32
2023-04-06T17:46:20.532Z,10.26
2023-04-06T17:48:48.589Z,10.23
2023-04-06T17:51:18.854Z,10.18
2023-04-06T17:53:46.606Z,10.10
2023-04-06T17:56:15.675Z,10.14
2023-04-06T17:58:43.222Z,10.02
2023-04-06T18:01:11.786Z,9.93
2023-04-06T18:03:39.449Z,9.88
2023-04-06T18:06:11.406Z,9.87
2023-04-06T18:08:38.969Z,9.87
2023-04-06T18:11:06.522Z,9.77
2023-04-06T18:13:37.173Z,9.78
2023-04-06T18:16:07.417Z,9.80
2023-04-06T18:18:35.468Z,9.64
2023-04-06T18:21:04.695Z,9.46
2023-04-06T18:23:32.302Z,9.04
2023-04-06T18:26:00.762Z,8.89
2023-04-06T18:28:28.333Z,8.76
2023-04-06T18:30:57.208Z,8.69
2023-04-06T18:33:27.324Z,8.67
2023-04-06T18:35:56.463Z,8.56
2023-04-06T18:38:24.113Z,8.42
2023-04-06T18:40:51.676Z,8.47
2023-04-06T18:43:19.259Z,8.36
2023-04-06T18:45:46.886Z,8.24
2023-04-06T18:48:15.803Z,8.12
2023-04-06T18:50:52.775Z,8.07
2023-04-06T18:53:21.610Z,8.03
2023-04-06T18:55:49.648Z,7.78
2023-04-06T18:58:17.134Z,7.49
2023-04-06T19:00:44.627Z,7.52
2023-04-06T19:03:12.282Z,7.41
2023-04-06T19:05:42.876Z,7.60
2023-04-06T19:08:10.428Z,7.48
2023-04-06T19:10:38.580Z,7.59
2023-04-06T19:13:06.630Z,7.39
2023-04-06T19:15:34.547Z,7.18
2023-04-06T19:18:02.131Z,7.61
2023-04-06T19:20:29.691Z,7.42
2023-04-06T19:22:58.512Z,7.33
2023-04-06T19:25:26.126Z,7.11
2023-04-06T19:27:53.611Z,6.90
2023-04-06T19:30:21.302Z,6.63
2023-04-06T19:32:49.001Z,6.28
2023-04-06T19:35:16.507Z,6.24
2023-04-06T19:37:44.255Z,6.44
2023-04-06T19:40:13.190Z,6.30
2023-04-06T19:42:40.729Z,6.16
2023-04-06T19:45:09.511Z,6.31
2023-04-06T19:47:40.106Z,6.41
2023-04-06T19:50:10.257Z,6.37
2023-04-06T19:52:37.764Z,6.11
2023-04-06T19:55:05.788Z,6.10
2023-04-06T19:57:34.615Z,6.06
2023-04-06T20:00:02.996Z,6.05
2023-04-06T20:02:37.277Z,6.05
2023-04-06T20:05:05.227Z,5.90
2023-04-06T20:07:32.753Z,5.87
2023-04-06T20:10:02.153Z,5.66
2023-04-06T20:12:29.731Z,5.68
2023-04-06T20:14:58.611Z,5.64
2023-04-06T20:17:26.129Z,5.58
2023-04-06T20:19:53.963Z,5.58
2023-04-06T20:22:21.754Z,5.74
2023-04-06T20:24:49.254Z,5.68
2023-04-06T20:27:18.240Z,5.65
2023-04-06T20:29:45.923Z,5.44
2023-04-06T20:32:20.375Z,5.23
2023-04-06T20:34:48.141Z,5.30
2023-04-06T20:37:16.231Z,5.29
2023-04-06T20:39:43.806Z,5.31
2023-04-06T20:42:11.292Z,5.27
2023-04-06T20:44:38.887Z,5.31
2023-04-06T20:47:06.430Z,5.24
2023-04-06T20:49:35.333Z,5.15
2023-04-06T20:52:03.070Z,4.79
2023-04-06T20:54:30.687Z,4.69
2023-04-06T20:56:59.590Z,4.63
2023-04-06T20:59:27.311Z,4.71
2023-04-06T21:01:54.946Z,4.76
2023-04-06T21:04:23.243Z,4.60
2023-04-06T21:06:52.231Z,4.47
2023-04-06T21:09:20.668Z,4.44
2023-04-06T21:11:48.178Z,4.38
2023-04-06T21:14:16.627Z,4.25
2023-04-06T21:16:45.045Z,4.36
2023-04-06T21:19:12.538Z,4.32
2023-04-06T21:21:40.339Z,4.30
2023-04-06T21:24:09.545Z,4.32
2023-04-06T21:26:37.592Z,4.39
2023-04-06T21:29:05.220Z,4.18
2023-04-06T21:31:32.792Z,4.26
2023-04-06T21:34:00.402Z,4.09
2023-04-06T21:36:28.609Z,4.25
2023-04-06T21:38:56.324Z,4.07
2023-04-06T21:41:26.001Z,4.17
2023-04-06T21:43:53.541Z,4.18
2023-04-06T21:46:21.148Z,3.94
2023-04-06T21:48:48.699Z,3.90
2023-04-06T21:51:19.526Z,3.91
2023-04-06T21:53:47.378Z,3.75
2023-04-06T21:56:15.165Z,3.29
2023-04-06T21:58:43.973Z,3.23
2023-04-06T22:01:12.150Z,3.27
2023-04-06T22:03:40.069Z,3.27
2023-04-06T22:06:08.577Z,3.18
2023-04-06T22:08:36.347Z,3.08
2023-04-06T22:11:09.544Z,3.10
2023-04-06T22:13:37.197Z,3.13
2023-04-06T22:16:06.979Z,3.13
2023-04-06T22:18:36.610Z,3.36
2023-04-06T22:21:05.796Z,3.19
2023-04-06T22:23:33.380Z,3.24
2023-04-06T22:26:00.969Z,3.02
2023-04-06T22:28:28.482Z,2.65
2023-04-06T22:30:56.016Z,2.45
2023-04-06T22:33:25.093Z,2.57
2023-04-06T22:35:52.653Z,2.66
2023-04-06T22:38:20.290Z,2.70
2023-04-06T22:40:47.750Z,2.86
2023-04-06T22:43:15.483Z,3.06
2023-04-06T22:45:42.991Z,3.11
2023-04-06T22:48:10.543Z,2.81
2023-04-06T22:50:39.355Z,2.86
2023-04-06T22:53:07.132Z,2.91
2023-04-06T22:55:34.652Z,2.91
2023-04-06T22:58:02.169Z,2.91
2023-04-06T23:00:29.680Z,2.85
2023-04-06T23:02:57.444Z,2.94
2023-04-06T23:05:25.425Z,2.87
2023-04-06T23:07:54.636Z,2.79
2023-04-06T23:10:22.192Z,2.74
2023-04-06T23:12:49.846Z,2.75
2023-04-06T23:15:17.400Z,2.82
2023-04-06T23:17:46.708Z,3.01
2023-04-06T23:20:14.254Z,2.81
2023-04-06T23:22:41.766Z,2.77
2023-04-06T23:25:11.150Z,2.60
2023-04-06T23:27:38.642Z,2.55
2023-04-06T23:30:07.522Z,2.53
2023-04-06T23:32:35.701Z,2.60
2023-04-06T23:35:03.495Z,2.52
2023-04-06T23:37:31.022Z,2.46
2023-04-06T23:39:58.877Z,2.41
2023-04-06T23:42:28.936Z,2.27
2023-04-06T23:44:56.954Z,2.43
2023-04-06T23:47:24.513Z,2.27
2023-04-06T23:49:52.034Z,2.25
2023-04-06T23:52:19.538Z,2.22
2023-04-06T23:54:47.025Z,2.39
2023-04-06T23:57:14.493Z,2.34
2023-04-06T23:59:43.304Z,2.32
